Time;durP1;ratioP1;P1;durP2;ratioP2;P2;SDS_P1;SDS_P2;PMS_P1;PMS_P2;Temp;Humidity;BMP_temperature;BMP_pressure;BME280_temperature;BME280_humidity;BME280_pressure;Samples;Min_cycle;Max_cycle;Signal;HPM_P1;HPM_P2
2021/11/25 00:00:21;;;;;;;13.40;9.97;;;7.50;95.40;;;;;;2613292;54;20435;-78
2021/11/25 00:02:47;;;;;;;10.67;9.57;;;7.40;94.90;;;;;;2612918;54;20415;-75
2021/11/25 00:05:16;;;;;;;11.47;10.30;;;7.00;97.50;;;;;;2613361;54;20436;-76
2021/11/25 00:07:42;;;;;;;13.63;11.77;;;7.20;97.30;;;;;;2613205;47;20431;-78
2021/11/25 00:10:09;;;;;;;14.63;11.60;;;7.30;96.40;;;;;;2613881;39;20831;-76
2021/11/25 00:12:36;;;;;;;12.30;9.97;;;7.30;96.00;;;;;;2613093;54;20151;-77
2021/11/25 00:15:02;;;;;;;15.10;10.60;;;7.30;95.90;;;;;;2614660;31;20914;-76
2021/11/25 00:17:28;;;;;;;13.43;11.60;;;7.40;96.10;;;;;;2614110;54;20460;-77
2021/11/25 00:19:54;;;;;;;13.63;12.17;;;7.60;95.40;;;;;;2612438;39;20899;-77
2021/11/25 00:22:20;;;;;;;12.60;11.23;;;7.60;94.40;;;;;;2613634;54;20234;-75
2021/11/25 00:24:46;;;;;;;14.60;11.30;;;7.70;94.90;;;;;;2613154;39;20636;-75
2021/11/25 00:27:11;;;;;;;12.90;10.27;;;7.00;98.10;;;;;;2612177;54;20455;-75
2021/11/25 00:29:37;;;;;;;16.73;11.03;;;6.50;99.80;;;;;;2613602;54;20160;-76
2021/11/25 00:32:03;;;;;;;13.20;11.80;;;6.20;99.90;;;;;;2613364;54;20177;-76
2021/11/25 00:34:29;;;;;;;14.90;12.70;;;6.60;99.90;;;;;;2612247;39;20576;-76
2021/11/25 00:36:55;;;;;;;13.97;11.47;;;6.50;99.20;;;;;;2614416;54;20428;-76
2021/11/25 00:39:21;;;;;;;10.63;9.63;;;6.70;98.80;;;;;;2612923;54;21074;-76
2021/11/25 00:41:48;;;;;;;9.87;8.97;;;6.70;98.60;;;;;;2614936;39;20797;-75
2021/11/25 00:44:15;;;;;;;13.03;9.70;;;6.90;98.50;;;;;;2611623;54;20683;-75
2021/11/25 00:46:41;;;;;;;13.67;10.90;;;6.60;97.90;;;;;;2614541;39;20823;-77
2021/11/25 00:49:08;;;;;;;14.67;11.33;;;6.50;98.50;;;;;;2613670;39;20756;-78
2021/11/25 00:51:34;;;;;;;15.07;11.70;;;6.50;98.30;;;;;;2612295;54;20408;-77
2021/11/25 00:53:59;;;;;;;14.43;11.23;;;6.40;99.50;;;;;;2612012;54;20429;-77
2021/11/25 00:56:25;;;;;;;12.03;10.33;;;5.90;99.90;;;;;;2613104;46;20268;-75
2021/11/25 00:58:51;;;;;;;11.17;9.37;;;5.90;99.90;;;;;;2613151;54;20181;-75
2021/11/25 01:01:17;;;;;;;12.93;11.40;;;6.10;99.90;;;;;;2614546;39;20542;-75
2021/11/25 01:03:43;;;;;;;11.73;10.50;;;6.10;99.90;;;;;;2612339;54;20419;-75
2021/11/25 01:06:10;;;;;;;12.47;11.17;;;6.20;99.90;;;;;;2613764;54;20511;-75
2021/11/25 01:08:35;;;;;;;13.77;10.97;;;6.00;99.90;;;;;;2614076;39;20585;-76
2021/11/25 01:11:04;;;;;;;12.20;10.90;;;6.00;99.90;;;;;;2613966;54;20526;-76
2021/11/25 01:13:30;;;;;;;13.30;11.90;;;6.00;99.90;;;;;;2612631;54;20161;-76
2021/11/25 01:15:56;;;;;;;14.70;11.73;;;6.20;99.90;;;;;;2614029;54;20988;-77
2021/11/25 01:18:23;;;;;;;14.70;11.70;;;6.20;99.70;;;;;;2613559;54;20442;-75
2021/11/25 01:20:50;;;;;;;13.73;11.47;;;6.20;99.90;;;;;;2613349;39;20784;-76
2021/11/25 01:23:20;;;;;;;13.60;11.57;;;6.40;99.60;;;;;;2612189;54;20431;-74
2021/11/25 01:25:48;;;;;;;13.13;11.37;;;6.30;99.60;;;;;;2612512;54;20427;-75
2021/11/25 01:28:14;;;;;;;13.63;10.73;;;6.30;99.40;;;;;;2613391;39;20834;-74
2021/11/25 01:30:45;;;;;;;13.00;9.90;;;6.40;98.90;;;;;;2612627;39;20797;-75
2021/11/25 01:33:12;;;;;;;11.43;10.30;;;6.40;99.10;;;;;;2613960;39;20808;-76
2021/11/25 01:35:38;;;;;;;12.37;10.30;;;6.40;98.90;;;;;;2613152;51;20459;-76
2021/11/25 01:38:06;;;;;;;10.70;9.60;;;6.20;99.90;;;;;;2613866;54;20416;-75
2021/11/25 01:40:32;;;;;;;12.30;10.77;;;5.90;99.90;;;;;;2612883;54;20426;-75
2021/11/25 01:42:59;;;;;;;14.50;11.70;;;5.80;99.90;;;;;;2613454;31;20836;-76
2021/11/25 01:45:26;;;;;;;13.00;11.10;;;5.80;99.90;;;;;;2613273;39;20810;-75
2021/11/25 01:47:54;;;;;;;17.37;11.30;;;6.10;99.90;;;;;;2613885;54;21054;-76
2021/11/25 01:50:22;;;;;;;12.30;11.00;;;6.40;99.80;;;;;;2612824;54;20450;-76
2021/11/25 01:52:48;;;;;;;15.17;11.63;;;6.40;99.20;;;;;;2613505;54;21008;-76
2021/11/25 01:55:16;;;;;;;13.80;11.23;;;6.40;98.90;;;;;;2613926;54;20959;-76
2021/11/25 01:57:42;;;;;;;16.70;12.17;;;6.60;98.50;;;;;;2613126;54;20455;-75
2021/11/25 02:00:26;;;;;;;17.50;11.10;;;6.40;98.90;;;;;;2612657;47;20506;-77
2021/11/25 02:02:56;;;;;;;14.23;12.17;;;6.10;99.60;;;;;;2612903;39;20850;-74
2021/11/25 02:05:22;;;;;;;11.90;10.67;;;6.30;99.90;;;;;;2613387;54;20427;-75
2021/11/25 02:07:48;;;;;;;13.57;11.73;;;6.40;98.60;;;;;;2613715;54;20403;-74
2021/11/25 02:10:15;;;;;;;13.03;11.23;;;6.00;99.90;;;;;;2612171;49;20427;-75
2021/11/25 02:12:41;;;;;;;12.80;10.40;;;6.00;99.90;;;;;;2613233;54;20416;-76
2021/11/25 02:15:08;;;;;;;13.27;11.10;;;6.30;99.20;;;;;;2612640;54;21193;-76
2021/11/25 02:17:36;;;;;;;11.83;10.70;;;6.40;99.50;;;;;;2614233;54;20419;-77
2021/11/25 02:20:06;;;;;;;14.17;11.33;;;6.40;99.60;;;;;;2614529;39;21003;-77
2021/11/25 02:22:32;;;;;;;16.60;11.73;;;6.70;98.10;;;;;;2613018;54;20423;-77
2021/11/25 02:24:58;;;;;;;15.60;13.13;;;6.70;98.20;;;;;;2612741;39;20769;-77
2021/11/25 02:27:24;;;;;;;15.90;11.77;;;6.70;98.40;;;;;;2613366;54;20182;-76
2021/11/25 02:29:51;;;;;;;12.73;10.63;;;6.70;98.20;;;;;;2613472;54;20150;-75
2021/11/25 02:32:31;;;;;;;14.50;10.30;;;6.00;99.90;;;;;;2612945;54;20452;-76
2021/11/25 02:34:57;;;;;;;10.87;9.87;;;6.10;99.90;;;;;;2612709;54;20395;-77
2021/11/25 02:37:23;;;;;;;12.00;9.07;;;6.30;99.90;;;;;;2613083;54;20398;-76
2021/11/25 02:39:49;;;;;;;12.83;11.40;;;6.10;99.90;;;;;;2612897;54;20407;-75
2021/11/25 02:42:16;;;;;;;20.83;11.37;;;5.90;99.90;;;;;;2612741;54;20415;-75
2021/11/25 02:44:42;;;;;;;12.33;11.07;;;5.80;99.90;;;;;;2613077;54;20407;-75
2021/11/25 02:47:08;;;;;;;11.77;10.53;;;5.70;99.90;;;;;;2613829;54;20979;-77
2021/11/25 02:49:34;;;;;;;14.10;10.10;;;5.80;99.90;;;;;;2612211;51;20170;-75
2021/11/25 02:52:00;;;;;;;19.03;12.13;;;5.80;99.90;;;;;;2614288;54;21000;-76
2021/11/25 02:54:26;;;;;;;17.20;11.83;;;5.90;99.90;;;;;;2612651;54;20155;-76
2021/11/25 02:56:51;;;;;;;14.13;11.50;;;5.90;99.90;;;;;;2612037;54;20971;-77
2021/11/25 02:59:18;;;;;;;13.27;11.33;;;5.70;99.90;;;;;;2614325;39;20884;-78
2021/11/25 03:01:43;;;;;;;12.40;11.20;;;5.70;99.90;;;;;;2613933;39;20908;-75
2021/11/25 03:04:09;;;;;;;13.90;11.07;;;5.90;99.90;;;;;;2612277;54;20434;-76
2021/11/25 03:06:36;;;;;;;15.27;11.43;;;6.00;99.90;;;;;;2613104;39;20520;-75
2021/11/25 03:09:03;;;;;;;14.67;11.33;;;6.00;99.90;;;;;;2612523;54;20438;-76
2021/11/25 03:11:30;;;;;;;14.63;11.43;;;6.10;99.90;;;;;;2613519;54;20411;-76
2021/11/25 03:13:59;;;;;;;16.10;12.47;;;6.00;99.90;;;;;;2612241;54;20439;-76
2021/11/25 03:16:25;;;;;;;14.90;11.97;;;5.90;99.90;;;;;;2612874;54;20415;-75
2021/11/25 03:18:51;;;;;;;13.10;11.40;;;6.10;99.40;;;;;;2612761;54;20947;-77
2021/11/25 03:21:19;;;;;;;12.87;10.53;;;6.30;99.50;;;;;;2614372;54;20508;-75
2021/11/25 03:23:47;;;;;;;15.13;12.10;;;6.40;99.50;;;;;;2610809;47;20476;-75
2021/11/25 03:26:17;;;;;;;13.67;11.97;;;6.10;99.90;;;;;;2613674;39;20832;-76
2021/11/25 03:28:46;;;;;;;17.73;12.47;;;6.20;99.90;;;;;;2612805;54;20446;-75
2021/11/25 03:31:18;;;;;;;16.80;11.80;;;6.30;98.90;;;;;;2612985;47;20428;-75
2021/11/25 03:33:44;;;;;;;12.40;11.17;;;6.20;99.60;;;;;;2612150;54;20416;-76
2021/11/25 03:36:10;;;;;;;16.90;12.77;;;6.20;99.90;;;;;;2612045;54;20996;-75
2021/11/25 03:38:36;;;;;;;14.60;12.00;;;6.40;98.90;;;;;;2612196;47;20490;-76
2021/11/25 03:41:04;;;;;;;15.73;13.50;;;6.40;98.90;;;;;;2613323;54;20446;-76
2021/11/25 03:43:30;;;;;;;14.30;12.80;;;6.70;98.60;;;;;;2610609;54;20428;-77
2021/11/25 03:45:56;;;;;;;11.93;10.73;;;6.60;98.40;;;;;;2613750;54;20407;-76
2021/11/25 03:48:24;;;;;;;13.17;11.77;;;6.90;98.50;;;;;;2613314;39;20806;-74
2021/11/25 03:50:52;;;;;;;16.80;12.33;;;7.30;96.80;;;;;;2613395;54;20408;-75
2021/11/25 03:53:18;;;;;;;14.30;11.80;;;7.30;96.10;;;;;;2611356;54;20415;-75
2021/11/25 03:55:44;;;;;;;16.30;13.00;;;7.40;96.00;;;;;;2612590;39;20789;-77
2021/11/25 03:58:10;;;;;;;14.33;12.90;;;7.30;96.10;;;;;;2611827;54;20415;-74
2021/11/25 04:00:38;;;;;;;13.17;11.83;;;7.40;96.00;;;;;;2613236;39;20923;-75
2021/11/25 04:03:04;;;;;;;13.77;11.53;;;7.10;96.30;;;;;;2611971;54;20403;-76
2021/11/25 04:05:32;;;;;;;13.40;11.57;;;7.00;97.10;;;;;;2611937;54;20427;-76
2021/11/25 04:07:58;;;;;;;14.37;12.80;;;6.80;97.50;;;;;;2612523;39;20472;-76
2021/11/25 04:10:25;;;;;;;16.13;12.30;;;6.90;97.20;;;;;;2613308;54;20415;-77
2021/11/25 04:12:51;;;;;;;18.17;12.30;;;6.70;97.00;;;;;;2612237;54;20439;-75
2021/11/25 04:15:18;;;;;;;17.23;12.90;;;6.30;98.60;;;;;;2612282;47;20968;-74
2021/11/25 04:17:44;;;;;;;17.60;12.63;;;6.50;98.10;;;;;;2614120;31;20851;-76
2021/11/25 04:20:11;;;;;;;15.40;13.40;;;6.40;98.30;;;;;;2613279;46;20427;-76
2021/11/25 04:22:38;;;;;;;13.37;11.97;;;6.40;98.90;;;;;;2613028;54;20415;-76
2021/11/25 04:25:05;;;;;;;15.13;13.03;;;6.50;98.90;;;;;;2612766;39;20837;-75
2021/11/25 04:27:31;;;;;;;14.50;13.00;;;6.60;98.20;;;;;;2613574;54;20462;-77
2021/11/25 04:37:53;;;;;;;16.40;14.20;;;6.70;96.20;;;;;;2613069;54;20418;-75
2021/11/25 04:40:19;;;;;;;16.17;13.63;;;6.60;96.50;;;;;;2613459;51;20442;-75
2021/11/25 04:42:44;;;;;;;16.07;14.10;;;6.70;96.10;;;;;;2612195;47;20412;-76
2021/11/25 04:45:10;;;;;;;15.70;12.27;;;6.50;96.80;;;;;;2613497;54;20154;-76
2021/11/25 04:47:37;;;;;;;14.93;13.33;;;6.30;97.80;;;;;;2612733;54;20154;-77
2021/11/25 04:50:04;;;;;;;15.23;13.00;;;6.20;98.60;;;;;;2612307;54;20423;-75
2021/11/25 04:52:29;;;;;;;14.60;12.73;;;6.50;98.00;;;;;;2613375;54;20995;-76
2021/11/25 04:54:55;;;;;;;18.43;14.13;;;6.60;96.70;;;;;;2612683;54;20404;-74
2021/11/25 04:57:21;;;;;;;14.37;12.80;;;6.20;97.20;;;;;;2613059;54;21959;-75
2021/11/25 04:59:47;;;;;;;18.40;13.30;;;5.90;98.70;;;;;;2613836;54;20162;-75
2021/11/25 05:02:13;;;;;;;14.60;13.10;;;5.70;99.10;;;;;;2612587;39;20634;-76
2021/11/25 05:04:38;;;;;;;15.70;14.10;;;5.70;99.40;;;;;;2613270;54;20143;-75
2021/11/25 05:07:04;;;;;;;15.37;13.20;;;5.30;99.90;;;;;;2612895;54;20951;-76
2021/11/25 05:09:30;;;;;;;16.93;15.13;;;5.20;99.90;;;;;;2613373;54;20266;-76
2021/11/25 05:11:56;;;;;;;18.87;15.70;;;5.00;99.90;;;;;;2612529;54;20275;-75
2021/11/25 05:14:21;;;;;;;19.60;14.13;;;4.80;99.90;;;;;;2613337;54;20255;-76
2021/11/25 05:16:47;;;;;;;17.63;13.40;;;4.80;99.90;;;;;;2612663;47;20179;-76
2021/11/25 05:19:19;;;;;;;16.60;14.50;;;4.80;99.90;;;;;;2613421;54;20150;-75
2021/11/25 05:21:46;;;;;;;17.57;14.30;;;4.70;99.90;;;;;;2612509;54;20427;-75
2021/11/25 05:24:11;;;;;;;15.90;14.20;;;4.30;99.90;;;;;;2613990;54;20154;-76
2021/11/25 05:26:37;;;;;;;15.53;13.10;;;4.10;99.90;;;;;;2612593;54;20419;-75
2021/11/25 05:29:04;;;;;;;22.50;13.63;;;4.10;99.90;;;;;;2611985;54;20209;-77
2021/11/25 05:31:30;;;;;;;17.33;14.20;;;4.10;99.90;;;;;;2613436;54;20427;-77
2021/11/25 05:33:55;;;;;;;19.77;15.37;;;4.20;99.90;;;;;;2614087;54;20927;-75
2021/11/25 05:36:23;;;;;;;18.67;15.30;;;4.20;99.90;;;;;;2612106;47;20278;-76
2021/11/25 05:38:48;;;;;;;16.37;14.13;;;4.00;99.90;;;;;;2614350;39;20811;-75
2021/11/25 05:41:14;;;;;;;16.27;14.57;;;3.80;99.90;;;;;;2612532;54;20651;-76
2021/11/25 05:43:40;;;;;;;20.80;15.20;;;3.90;99.90;;;;;;2613003;54;20237;-76
2021/11/25 05:46:06;;;;;;;18.13;14.63;;;3.80;99.90;;;;;;2613115;54;20166;-76
2021/11/25 05:48:32;;;;;;;15.53;13.97;;;3.80;99.90;;;;;;2613850;54;20458;-76
2021/11/25 05:50:58;;;;;;;16.77;15.03;;;3.60;99.90;;;;;;2611687;54;20238;-76
2021/11/25 05:53:24;;;;;;;21.60;15.47;;;3.70;99.90;;;;;;2613101;54;20166;-77
2021/11/25 05:55:50;;;;;;;16.80;15.00;;;3.70;99.90;;;;;;2613128;54;20400;-75
2021/11/25 05:58:16;;;;;;;24.63;17.80;;;3.60;99.90;;;;;;2613217;54;20408;-76
2021/11/25 06:00:43;;;;;;;18.83;16.10;;;3.70;99.90;;;;;;2611250;54;20423;-76
2021/11/25 06:03:09;;;;;;;21.43;14.83;;;3.50;99.90;;;;;;2610681;54;20416;-77
2021/11/25 06:05:35;;;;;;;19.03;14.87;;;3.40;99.90;;;;;;2612008;31;20857;-76
2021/11/25 06:08:02;;;;;;;19.53;14.87;;;3.30;99.90;;;;;;2613233;54;20388;-76
2021/11/25 06:10:29;;;;;;;20.63;16.03;;;3.10;99.90;;;;;;2612910;54;20398;-76
2021/11/25 06:12:57;;;;;;;21.93;16.23;;;3.10;99.90;;;;;;2613391;54;20423;-75
2021/11/25 06:15:23;;;;;;;19.47;16.47;;;3.20;99.90;;;;;;2613313;54;20411;-76
2021/11/25 06:17:50;;;;;;;20.13;15.53;;;3.30;99.90;;;;;;2613149;54;20419;-75
2021/11/25 06:20:17;;;;;;;17.63;14.60;;;3.20;99.90;;;;;;2612898;54;21515;-76
2021/11/25 06:22:46;;;;;;;18.53;15.10;;;3.30;99.90;;;;;;2613638;54;20971;-75
2021/11/25 06:25:14;;;;;;;18.53;14.50;;;3.30;99.90;;;;;;2612498;47;20427;-77
2021/11/25 06:27:40;;;;;;;18.20;16.30;;;3.20;99.90;;;;;;2613750;39;20814;-77
2021/11/25 06:30:11;;;;;;;22.50;15.40;;;3.10;99.90;;;;;;2609067;47;20510;-76
2021/11/25 06:32:39;;;;;;;25.27;16.83;;;3.10;99.90;;;;;;2611644;47;20471;-75
2021/11/25 06:35:09;;;;;;;17.83;15.47;;;3.00;99.90;;;;;;2611450;54;20932;-77
2021/11/25 06:37:38;;;;;;;21.90;16.87;;;2.80;99.90;;;;;;2611457;39;20798;-78
2021/11/25 06:40:07;;;;;;;21.00;16.07;;;2.80;99.90;;;;;;2608929;47;20431;-76
2021/11/25 06:42:33;;;;;;;21.23;17.83;;;2.70;99.90;;;;;;2611287;54;20419;-76
2021/11/25 06:44:59;;;;;;;18.37;14.73;;;2.60;99.90;;;;;;2611725;54;20523;-76
2021/11/25 06:47:24;;;;;;;20.60;17.33;;;2.70;99.90;;;;;;2611301;54;20717;-75
2021/11/25 06:49:50;;;;;;;22.03;16.60;;;2.50;99.90;;;;;;2611359;54;20170;-75
2021/11/25 06:52:16;;;;;;;21.63;16.53;;;2.50;99.90;;;;;;2611049;54;20257;-75
2021/11/25 06:54:42;;;;;;;23.87;17.23;;;2.70;99.90;;;;;;2610876;47;20178;-76
2021/11/25 06:57:08;;;;;;;19.33;16.13;;;2.70;99.90;;;;;;2609927;54;21101;-77
2021/11/25 06:59:34;;;;;;;24.87;17.80;;;2.60;99.90;;;;;;2608981;54;20151;-74
2021/11/25 07:02:00;;;;;;;35.77;19.23;;;2.80;99.90;;;;;;2610650;47;20188;-75
2021/11/25 07:04:26;;;;;;;26.23;17.70;;;2.90;99.90;;;;;;2611179;54;20467;-76
2021/11/25 07:06:51;;;;;;;24.20;17.33;;;3.10;99.90;;;;;;2611282;46;20489;-75
2021/11/25 07:09:17;;;;;;;23.50;18.33;;;3.10;99.90;;;;;;2609283;54;20163;-75
2021/11/25 07:11:44;;;;;;;31.07;20.47;;;3.10;99.90;;;;;;2610341;54;20154;-77
2021/11/25 07:14:10;;;;;;;26.20;19.97;;;3.10;99.90;;;;;;2611233;54;20414;-77
2021/11/25 07:16:36;;;;;;;25.50;18.80;;;3.10;99.90;;;;;;2612406;54;20391;-77
2021/11/25 07:19:03;;;;;;;26.53;19.33;;;3.00;99.90;;;;;;2610019;54;20290;-76
2021/11/25 07:21:30;;;;;;;24.57;19.13;;;2.90;99.90;;;;;;2612339;39;21393;-77
2021/11/25 07:23:55;;;;;;;25.63;19.10;;;2.90;99.90;;;;;;2611660;54;20411;-76
2021/11/25 07:26:21;;;;;;;25.50;19.10;;;2.80;99.90;;;;;;2609308;54;20430;-76
2021/11/25 07:28:47;;;;;;;27.33;19.37;;;2.80;99.90;;;;;;2611218;54;20189;-76
2021/11/25 07:31:13;;;;;;;30.90;19.90;;;2.90;99.90;;;;;;2609905;47;20517;-76
2021/11/25 07:33:40;;;;;;;34.93;22.27;;;3.00;99.90;;;;;;2611308;39;21368;-76
2021/11/25 07:36:06;;;;;;;33.40;22.90;;;3.10;99.90;;;;;;2611598;54;20404;-76
2021/11/25 07:38:32;;;;;;;31.10;23.10;;;2.90;99.90;;;;;;2612228;39;20832;-77
2021/11/25 07:40:59;;;;;;;28.83;21.27;;;3.10;99.90;;;;;;2610782;54;20400;-75
2021/11/25 07:43:27;;;;;;;28.30;20.80;;;3.20;99.90;;;;;;2609517;54;20511;-76
2021/11/25 07:45:53;;;;;;;43.43;22.37;;;3.20;99.90;;;;;;2610675;54;22374;-75
2021/11/25 07:48:19;;;;;;;29.00;21.20;;;3.20;99.90;;;;;;2609724;39;21839;-76
2021/11/25 07:50:45;;;;;;;36.47;23.40;;;3.10;99.90;;;;;;2611249;54;20513;-76
2021/11/25 07:53:11;;;;;;;28.70;21.90;;;3.40;99.90;;;;;;2611837;54;20510;-77
2021/11/25 07:55:36;;;;;;;34.47;23.77;;;3.60;99.90;;;;;;2611454;47;20428;-76
2021/11/25 07:58:03;;;;;;;29.70;21.80;;;3.60;99.90;;;;;;2612164;54;20154;-76
2021/11/25 08:00:29;;;;;;;33.63;21.00;;;3.70;99.90;;;;;;2613119;54;20714;-77
2021/11/25 08:02:56;;;;;;;29.67;21.77;;;3.60;99.90;;;;;;2611674;39;21022;-75
2021/11/25 08:05:26;;;;;;;33.43;23.63;;;3.60;99.90;;;;;;2611358;54;20519;-76
2021/11/25 08:07:56;;;;;;;27.83;22.17;;;3.60;99.90;;;;;;2612622;54;20479;-76
2021/11/25 08:10:25;;;;;;;29.67;20.87;;;3.70;99.90;;;;;;2611203;54;20518;-78
2021/11/25 08:12:51;;;;;;;29.37;24.20;;;4.10;99.90;;;;;;2609778;54;20531;-76
2021/11/25 08:15:17;;;;;;;35.03;23.03;;;4.50;99.90;;;;;;2612035;54;20399;-75
2021/11/25 08:17:43;;;;;;;38.73;24.10;;;4.30;99.90;;;;;;2612329;54;20403;-76
2021/11/25 08:20:10;;;;;;;33.03;24.93;;;4.40;99.90;;;;;;2629360;36;20586;-78
2021/11/25 08:22:36;;;;;;;30.63;22.87;;;4.30;99.90;;;;;;2612337;54;21026;-75
2021/11/25 08:25:05;;;;;;;30.70;21.93;;;4.40;99.90;;;;;;2610739;54;20419;-78
2021/11/25 08:27:31;;;;;;;32.53;22.97;;;5.10;99.90;;;;;;2611764;39;20618;-76
2021/11/25 08:29:57;;;;;;;40.53;23.60;;;5.20;99.90;;;;;;2611737;54;20415;-78
2021/11/25 08:32:23;;;;;;;30.83;23.67;;;5.00;99.90;;;;;;2608348;54;21024;-75
2021/11/25 08:34:49;;;;;;;39.83;24.50;;;5.40;99.90;;;;;;2610390;54;20423;-77
2021/11/25 08:37:15;;;;;;;29.90;23.53;;;6.10;99.90;;;;;;2612260;54;20234;-76
2021/11/25 08:39:41;;;;;;;31.43;21.97;;;6.80;99.90;;;;;;2613348;39;20788;-76
2021/11/25 08:42:08;;;;;;;30.80;24.37;;;6.70;99.90;;;;;;2612688;54;20446;-77
2021/11/25 08:44:34;;;;;;;25.13;19.90;;;6.30;99.90;;;;;;2613431;39;20578;-76
2021/11/25 08:47:00;;;;;;;25.93;21.60;;;6.20;99.90;;;;;;2612100;54;20398;-74
2021/11/25 08:49:28;;;;;;;32.20;21.47;;;6.40;99.90;;;;;;2611539;54;20417;-75
2021/11/25 08:51:54;;;;;;;30.53;21.43;;;6.10;99.90;;;;;;2611807;54;20403;-75
2021/11/25 08:54:21;;;;;;;30.57;21.33;;;6.10;99.90;;;;;;2613116;54;20543;-76
2021/11/25 08:56:48;;;;;;;24.73;19.40;;;6.00;99.90;;;;;;2611440;54;20186;-75
2021/11/25 08:59:14;;;;;;;29.80;22.27;;;6.00;99.90;;;;;;2611852;54;20980;-75
2021/11/25 09:01:40;;;;;;;27.40;19.97;;;6.10;99.90;;;;;;2613061;54;20392;-77
2021/11/25 09:04:07;;;;;;;34.60;21.50;;;6.30;99.90;;;;;;2613445;54;20430;-77
2021/11/25 09:06:34;;;;;;;29.30;19.13;;;6.30;99.90;;;;;;2610797;47;20970;-75
2021/11/25 09:09:00;;;;;;;26.90;20.20;;;6.80;99.80;;;;;;2611114;54;20408;-77
2021/11/25 09:11:26;;;;;;;28.30;22.20;;;6.30;98.90;;;;;;2613581;54;20482;-76
2021/11/25 09:13:52;;;;;;;30.47;19.47;;;6.30;99.90;;;;;;2613467;39;20787;-77
2021/11/25 09:16:18;;;;;;;27.50;18.70;;;5.90;99.90;;;;;;2611449;54;20448;-76
2021/11/25 09:18:44;;;;;;;29.17;21.00;;;5.80;99.90;;;;;;2613019;54;20159;-76
2021/11/25 09:21:10;;;;;;;27.83;21.60;;;5.80;99.90;;;;;;2612198;47;20186;-77
2021/11/25 09:23:36;;;;;;;30.57;21.47;;;5.90;99.90;;;;;;2611539;54;20527;-77
2021/11/25 09:26:02;;;;;;;28.70;21.17;;;5.80;99.90;;;;;;2613231;54;20403;-76
2021/11/25 09:28:28;;;;;;;28.37;20.63;;;5.40;99.90;;;;;;2611459;39;21936;-77
2021/11/25 09:30:55;;;;;;;36.40;22.90;;;5.50;99.90;;;;;;2611437;47;20504;-77
2021/11/25 09:33:23;;;;;;;26.83;20.03;;;5.30;99.90;;;;;;2612238;54;20400;-75
2021/11/25 09:35:49;;;;;;;32.30;23.50;;;5.00;99.90;;;;;;2611823;54;20921;-76
2021/11/25 09:38:16;;;;;;;39.33;22.90;;;4.90;99.90;;;;;;2611078;46;20980;-77
2021/11/25 09:40:44;;;;;;;28.50;22.70;;;5.20;99.90;;;;;;2611140;54;20441;-76
2021/11/25 09:43:15;;;;;;;35.30;23.07;;;5.00;99.90;;;;;;2609774;54;20404;-75
2021/11/25 09:45:43;;;;;;;31.10;23.77;;;5.10;99.90;;;;;;2611717;54;20438;-77
2021/11/25 09:48:11;;;;;;;33.10;22.97;;;5.10;99.90;;;;;;2610934;54;20441;-76
2021/11/25 09:50:44;;;;;;;31.10;22.87;;;5.10;99.90;;;;;;2611292;54;20395;-74
2021/11/25 09:53:13;;;;;;;34.90;22.13;;;5.00;99.90;;;;;;2609878;54;20531;-76
2021/11/25 09:55:44;;;;;;;33.03;22.10;;;4.90;99.90;;;;;;2613249;39;21030;-77
2021/11/25 09:58:14;;;;;;;34.70;23.83;;;5.20;99.90;;;;;;2612825;54;20404;-77
2021/11/25 10:00:45;;;;;;;31.93;23.70;;;5.20;99.90;;;;;;2612570;54;20420;-77
2021/11/25 10:03:15;;;;;;;39.90;25.43;;;5.30;99.90;;;;;;2611250;54;20440;-76
2021/11/25 10:05:44;;;;;;;37.37;23.97;;;5.30;99.90;;;;;;2611938;54;20450;-76
2021/11/25 10:08:23;;;;;;;30.63;23.57;;;5.30;99.90;;;;;;2611335;54;20408;-77
2021/11/25 10:10:59;;;;;;;33.63;23.13;;;5.40;99.90;;;;;;2610744;47;20427;-77
2021/11/25 10:13:34;;;;;;;36.73;24.90;;;5.40;99.90;;;;;;2611345;39;20834;-74
2021/11/25 10:16:00;;;;;;;34.63;24.33;;;5.40;99.90;;;;;;2612611;54;21824;-76
2021/11/25 10:18:32;;;;;;;38.70;25.30;;;5.40;99.90;;;;;;2612693;54;20400;-77
2021/11/25 10:21:07;;;;;;;31.53;22.93;;;5.40;99.90;;;;;;2610534;54;20679;-75
2021/11/25 10:23:34;;;;;;;36.37;24.77;;;5.60;99.90;;;;;;2612051;54;20458;-76
2021/11/25 10:26:13;;;;;;;34.23;24.43;;;5.80;99.90;;;;;;2611209;47;20412;-76
2021/11/25 10:28:41;;;;;;;34.10;23.90;;;5.60;99.90;;;;;;2610427;54;20429;-76
2021/11/25 10:31:13;;;;;;;37.10;24.37;;;5.50;99.90;;;;;;2611520;54;20419;-77
2021/11/25 10:33:52;;;;;;;33.07;24.37;;;5.70;99.90;;;;;;2610401;54;20423;-77
2021/11/25 10:36:32;;;;;;;43.17;28.30;;;5.80;99.90;;;;;;2612409;54;20430;-76
2021/11/25 10:39:17;;;;;;;37.40;25.33;;;5.60;99.90;;;;;;2609987;54;20395;-76
2021/11/25 10:41:48;;;;;;;38.93;25.20;;;5.50;99.90;;;;;;2611456;54;20424;-78
2021/11/25 10:44:24;;;;;;;32.37;24.40;;;5.60;99.90;;;;;;2610544;47;20401;-76
2021/11/25 10:47:02;;;;;;;28.00;20.40;;;5.40;99.90;;;;;;2611364;54;20400;-77
2021/11/25 10:49:43;;;;;;;33.93;22.57;;;5.60;99.90;;;;;;2611605;39;20777;-77
2021/11/25 10:52:31;;;;;;;35.60;19.87;;;5.30;99.90;;;;;;2611530;46;20424;-77
2021/11/25 10:55:18;;;;;;;33.53;22.63;;;5.30;99.90;;;;;;2612766;54;20454;-76
2021/11/25 10:57:48;;;;;;;32.10;23.37;;;5.40;99.90;;;;;;2612750;54;20963;-78
2021/11/25 11:00:25;;;;;;;35.63;26.37;;;5.80;99.90;;;;;;2612325;54;20395;-76
2021/11/25 11:03:07;;;;;;;31.70;23.70;;;5.90;99.90;;;;;;2611426;54;20363;-76
2021/11/25 11:05:52;;;;;;;22.43;13.67;;;5.70;99.90;;;;;;2612665;54;20955;-76
2021/11/25 11:08:19;;;;;;;32.43;23.67;;;5.50;99.90;;;;;;2612071;54;20802;-76
2021/11/25 11:10:56;;;;;;;32.93;23.23;;;5.90;99.90;;;;;;2612360;39;20905;-77
2021/11/25 11:18:53;;;;;;;24.73;17.20;;;7.10;99.90;;;;;;2611222;54;20920;-76
2021/11/25 11:21:39;;;;;;;27.53;21.23;;;6.70;99.50;;;;;;2611890;47;20462;-77
2021/11/25 11:24:18;;;;;;;28.70;22.90;;;6.00;99.90;;;;;;2610874;54;20454;-76
2021/11/25 11:26:53;;;;;;;28.03;19.67;;;5.90;99.90;;;;;;2612249;54;20399;-77
2021/11/25 11:29:21;;;;;;;28.90;21.30;;;5.70;99.90;;;;;;2612002;31;20934;-76
2021/11/25 11:31:49;;;;;;;31.37;22.63;;;5.90;99.90;;;;;;2612118;54;20484;-75
2021/11/25 11:34:17;;;;;;;28.30;21.93;;;6.00;99.90;;;;;;2610586;54;20519;-76
2021/11/25 11:36:45;;;;;;;24.77;19.73;;;6.10;99.90;;;;;;2610059;54;20507;-76
2021/11/25 11:39:14;;;;;;;30.30;18.73;;;6.30;99.90;;;;;;2611376;54;20408;-76
2021/11/25 11:41:46;;;;;;;29.60;23.27;;;6.40;99.90;;;;;;2613723;54;20475;-77
2021/11/25 11:44:12;;;;;;;31.80;23.10;;;6.40;99.90;;;;;;2611640;54;20438;-76
2021/11/25 11:46:40;;;;;;;28.43;19.07;;;7.10;99.20;;;;;;2612619;54;20411;-76
2021/11/25 11:49:07;;;;;;;33.80;20.03;;;7.80;96.60;;;;;;2612351;54;20675;-77
2021/11/25 11:51:34;;;;;;;35.40;21.07;;;7.50;97.00;;;;;;2612225;54;20453;-76
2021/11/25 11:54:02;;;;;;;20.73;15.00;;;7.60;97.10;;;;;;2609729;54;20519;-76
2021/11/25 11:56:40;;;;;;;29.37;21.80;;;6.60;99.00;;;;;;2612787;54;20424;-77
2021/11/25 11:59:08;;;;;;;25.97;19.60;;;6.40;99.90;;;;;;2613293;54;21023;-79
2021/11/25 12:01:35;;;;;;;25.37;18.47;;;6.60;99.60;;;;;;2612459;54;20966;-77
2021/11/25 12:04:09;;;;;;;23.23;18.43;;;6.50;99.00;;;;;;2612081;54;20514;-77
2021/11/25 12:06:44;;;;;;;29.57;21.17;;;6.50;99.00;;;;;;2611525;54;20406;-77
2021/11/25 12:09:22;;;;;;;26.40;19.73;;;6.10;99.90;;;;;;2612727;39;20852;-77
2021/11/25 12:11:54;;;;;;;25.60;20.67;;;6.20;99.90;;;;;;2613132;39;20787;-75
2021/11/25 12:14:22;;;;;;;29.37;17.13;;;5.90;99.90;;;;;;2612539;54;20444;-78
2021/11/25 12:16:56;;;;;;;33.00;20.80;;;6.10;99.90;;;;;;2611300;54;20395;-79
2021/11/25 12:19:26;;;;;;;24.63;18.80;;;6.20;99.90;;;;;;2612746;54;20411;-77
2021/11/25 12:21:55;;;;;;;27.83;17.03;;;5.90;99.90;;;;;;2612797;54;20422;-78
2021/11/25 12:24:27;;;;;;;27.63;19.20;;;5.80;99.90;;;;;;2611598;54;20411;-77
2021/11/25 12:27:23;;;;;;;16.40;14.23;;;5.60;99.90;;;;;;2611624;54;20554;-77
2021/11/25 12:30:03;;;;;;;22.67;13.97;;;5.70;99.90;;;;;;2612618;47;20439;-76
2021/11/25 12:32:50;;;;;;;30.27;19.77;;;5.80;99.90;;;;;;2612200;47;21043;-76
2021/11/25 12:35:37;;;;;;;23.60;16.90;;;5.80;99.90;;;;;;2610180;54;21536;-74
2021/11/25 12:38:08;;;;;;;20.13;15.37;;;5.60;99.90;;;;;;2611853;47;20427;-77
2021/11/25 12:40:44;;;;;;;30.63;21.47;;;5.50;99.90;;;;;;2608372;54;20975;-76
2021/11/25 12:43:13;;;;;;;25.43;18.17;;;5.60;99.90;;;;;;2610749;54;21015;-75
2021/11/25 12:45:40;;;;;;;26.17;19.93;;;5.70;99.90;;;;;;2612661;46;20490;-77
2021/11/25 12:48:12;;;;;;;28.27;21.30;;;5.90;99.90;;;;;;2610573;54;20543;-77
2021/11/25 12:50:43;;;;;;;27.20;21.57;;;6.10;99.90;;;;;;2611903;54;20962;-78
2021/11/25 12:53:32;;;;;;;28.77;20.60;;;6.00;99.90;;;;;;2612205;54;20505;-77
2021/11/25 12:56:08;;;;;;;28.47;22.23;;;6.00;99.90;;;;;;2612485;54;20435;-77